Time;durP1;ratioP1;P1;durP2;ratioP2;P2;SDS_P1;SDS_P2;PMS_P1;PMS_P2;Temp;Humidity;BMP_temperature;BMP_pressure;BME280_temperature;BME280_humidity;BME280_pressure;Samples;Min_cycle;Max_cycle;Signal;HPM_P1;HPM_P2
2021/05/16 00:00:08;;;;;;;30.08;17.35;;;;;;;12.33;83.26;98883.56;4386198;32;20071;-76
2021/05/16 00:02:35;;;;;;;28.52;17.10;;;;;;;12.51;81.92;98882.47;4397253;32;20134;-76
2021/05/16 00:05:00;;;;;;;30.15;18.42;;;;;;;12.37;82.69;98880.53;4391452;32;20026;-77
2021/05/16 00:07:26;;;;;;;29.33;18.75;;;;;;;12.35;82.49;98886.66;4397407;32;20073;-76
2021/05/16 00:09:51;;;;;;;27.80;16.77;;;;;;;12.35;83.48;98883.84;4395912;32;20398;-78
2021/05/16 00:12:18;;;;;;;31.60;18.55;;;;;;;12.40;83.52;98885.97;4392955;32;20043;-76
2021/05/16 00:14:44;;;;;;;32.95;18.67;;;;;;;12.42;83.75;98883.41;4393457;32;20107;-77
2021/05/16 00:17:11;;;;;;;29.17;17.10;;;;;;;12.64;83.15;98883.63;4395391;32;20598;-77
2021/05/16 00:19:37;;;;;;;23.30;14.95;;;;;;;12.57;84.22;98886.13;4393757;32;20073;-76
2021/05/16 00:22:03;;;;;;;26.42;14.63;;;;;;;12.46;84.28;98881.16;4399185;32;20095;-77
2021/05/16 00:24:30;;;;;;;20.52;13.20;;;;;;;12.59;83.91;98881.56;4394283;32;20050;-77
2021/05/16 00:26:56;;;;;;;18.27;11.70;;;;;;;12.53;83.57;98889.19;4394592;32;20109;-77
2021/05/16 00:29:22;;;;;;;17.35;11.43;;;;;;;12.52;82.55;98887.59;4391446;32;20090;-76
2021/05/16 00:31:48;;;;;;;18.52;11.07;;;;;;;12.54;82.29;98878.66;4394301;32;20038;-76
2021/05/16 00:34:14;;;;;;;16.27;10.13;;;;;;;12.73;81.25;98879.91;4395526;32;20329;-77
2021/05/16 00:36:39;;;;;;;14.32;9.70;;;;;;;12.53;82.58;98877.12;4396565;32;20097;-77
2021/05/16 00:39:06;;;;;;;16.12;10.13;;;;;;;12.72;82.13;98875.50;4396679;32;20478;-76
2021/05/16 00:41:32;;;;;;;13.95;8.88;;;;;;;12.76;80.85;98874.00;4393632;32;20425;-77
2021/05/16 00:43:58;;;;;;;14.43;8.80;;;;;;;12.59;81.90;98867.44;4392130;32;20617;-76
2021/05/16 00:46:24;;;;;;;12.25;8.48;;;;;;;12.53;81.24;98868.66;4393849;32;20371;-75
2021/05/16 00:48:50;;;;;;;13.68;8.52;;;;;;;12.53;81.21;98874.28;4396205;32;20096;-77
2021/05/16 00:51:16;;;;;;;14.05;9.43;;;;;;;12.45;81.40;98867.53;4394971;32;20046;-76
2021/05/16 00:53:42;;;;;;;15.40;8.90;;;;;;;12.50;81.95;98864.00;4397149;32;20101;-77
2021/05/16 00:56:11;;;;;;;15.57;9.98;;;;;;;12.43;81.86;98865.22;4394959;32;20054;-78
2021/05/16 00:58:37;;;;;;;15.93;9.60;;;;;;;12.44;82.05;98866.75;4395318;32;20116;-77
2021/05/16 01:01:07;;;;;;;15.95;9.90;;;;;;;12.63;81.74;98865.16;4395968;32;20042;-77
2021/05/16 01:03:33;;;;;;;15.35;9.05;;;;;;;12.59;81.44;98861.03;4393751;32;20055;-77
2021/05/16 01:05:59;;;;;;;14.63;8.82;;;;;;;12.58;81.47;98865.13;4393687;32;20487;-76
2021/05/16 01:08:24;;;;;;;15.80;8.63;;;;;;;12.55;81.42;98863.28;4391785;32;20035;-77
2021/05/16 01:10:51;;;;;;;16.23;9.32;;;;;;;12.51;80.96;98857.84;4394097;32;20097;-76
2021/05/16 01:13:17;;;;;;;15.50;9.93;;;;;;;12.50;80.36;98858.34;4396424;32;20074;-78
2021/05/16 01:15:45;;;;;;;27.30;12.32;;;;;;;12.39;81.69;98853.38;4394330;32;20065;-77
2021/05/16 01:18:12;;;;;;;16.62;9.80;;;;;;;12.25;82.99;98854.25;4394370;32;20548;-77
2021/05/16 01:20:41;;;;;;;14.35;8.70;;;;;;;12.39;82.28;98852.59;4392477;32;20066;-78
2021/05/16 01:23:19;;;;;;;12.02;7.62;;;;;;;12.15;82.27;98854.88;4398920;32;20132;-77
2021/05/16 01:25:47;;;;;;;15.15;8.75;;;;;;;12.22;82.75;98858.06;4394034;32;20449;-76
2021/05/16 01:28:14;;;;;;;14.68;9.50;;;;;;;12.19;82.67;98850.59;4392882;32;20073;-78
2021/05/16 01:30:41;;;;;;;14.02;8.32;;;;;;;12.40;82.15;98854.94;4397113;32;20034;-77
2021/05/16 01:33:07;;;;;;;13.52;8.18;;;;;;;12.40;82.07;98854.16;4390586;32;20080;-76
2021/05/16 01:35:34;;;;;;;11.57;7.50;;;;;;;12.27;82.56;98856.56;4393369;32;20401;-76
2021/05/16 01:38:00;;;;;;;12.25;7.80;;;;;;;12.22;82.93;98852.41;4394878;32;20127;-76
2021/05/16 01:40:27;;;;;;;13.40;8.05;;;;;;;12.20;83.27;98846.47;4392882;32;20042;-77
2021/05/16 01:42:55;;;;;;;13.23;7.85;;;;;;;12.22;83.04;98846.78;4394770;32;20123;-77
2021/05/16 01:45:24;;;;;;;20.80;8.32;;;;;;;12.27;82.50;98848.13;4393107;32;20119;-77
2021/05/16 01:47:53;;;;;;;16.45;7.85;;;;;;;12.34;82.31;98850.50;4392397;32;20154;-76
2021/05/16 01:50:20;;;;;;;12.10;8.30;;;;;;;12.33;82.54;98844.06;4391088;32;20095;-77
2021/05/16 01:52:47;;;;;;;15.50;9.68;;;;;;;12.32;82.79;98836.88;4391611;32;20080;-77
2021/05/16 01:55:15;;;;;;;13.85;8.43;;;;;;;12.31;83.91;98840.97;4391420;32;20084;-78
2021/05/16 01:57:41;;;;;;;13.62;9.23;;;;;;;12.41;82.70;98838.75;4393653;32;20459;-78
2021/05/16 02:00:11;;;;;;;15.13;9.68;;;;;;;12.50;83.00;98842.22;4394066;32;20097;-78
2021/05/16 02:02:38;;;;;;;12.37;8.52;;;;;;;12.53;82.79;98835.56;4391741;32;20115;-77
2021/05/16 02:05:04;;;;;;;12.82;8.45;;;;;;;12.46;82.61;98830.38;4392932;32;20086;-78
2021/05/16 02:07:31;;;;;;;12.13;7.53;;;;;;;12.30;83.06;98841.47;4393193;32;20538;-78
2021/05/16 02:09:57;;;;;;;12.77;7.80;;;;;;;12.30;83.00;98841.47;4395729;32;20099;-77
2021/05/16 02:12:23;;;;;;;11.57;7.93;;;;;;;12.47;81.57;98831.91;4400136;32;20071;-77
2021/05/16 02:14:49;;;;;;;16.10;8.25;;;;;;;12.42;82.36;98829.81;4389232;32;20068;-76
2021/05/16 02:17:15;;;;;;;11.75;6.50;;;;;;;12.29;82.62;98828.63;4391210;32;20450;-78
2021/05/16 02:19:41;;;;;;;10.95;5.75;;;;;;;12.24;83.41;98829.38;4393080;32;20046;-76
2021/05/16 02:22:07;;;;;;;12.32;6.20;;;;;;;12.20;83.55;98826.75;4392429;32;20099;-77
2021/05/16 02:24:34;;;;;;;11.23;5.90;;;;;;;12.23;82.75;98828.56;4394826;32;20078;-75
2021/05/16 02:27:00;;;;;;;9.35;5.57;;;;;;;12.26;83.28;98835.25;4396654;32;20370;-76
2021/05/16 02:29:27;;;;;;;11.85;5.82;;;;;;;12.27;82.50;98831.19;4393492;32;20091;-76
2021/05/16 02:31:54;;;;;;;10.15;5.80;;;;;;;12.27;82.75;98834.00;4390083;32;20062;-78
2021/05/16 02:34:20;;;;;;;10.43;5.93;;;;;;;12.27;82.53;98828.38;4393627;32;20078;-78
2021/05/16 02:36:46;;;;;;;14.00;5.35;;;;;;;12.29;82.87;98837.88;4395385;32;20168;-76
2021/05/16 02:39:12;;;;;;;8.00;5.03;;;;;;;12.31;82.39;98837.38;4396588;32;20459;-76
2021/05/16 02:41:38;;;;;;;10.02;4.82;;;;;;;12.26;80.95;98832.44;4389490;32;20116;-77
2021/05/16 02:44:05;;;;;;;7.60;5.12;;;;;;;12.16;81.79;98829.00;4391965;32;20082;-77
2021/05/16 02:46:31;;;;;;;10.10;4.45;;;;;;;12.16;81.98;98829.00;4392571;32;20042;-77
2021/05/16 02:48:56;;;;;;;10.38;4.40;;;;;;;12.16;81.93;98831.06;4393411;32;20431;-77
2021/05/16 02:51:22;;;;;;;12.52;4.20;;;;;;;12.13;81.41;98830.00;4392571;32;20091;-76
2021/05/16 02:53:48;;;;;;;9.82;4.82;;;;;;;12.13;81.23;98830.00;4396490;32;20046;-76
2021/05/16 02:56:16;;;;;;;9.45;4.95;;;;;;;12.15;81.81;98829.50;4392993;32;20042;-77
2021/05/16 02:58:43;;;;;;;11.95;4.75;;;;;;;12.12;81.85;98827.69;4394804;32;20117;-77
2021/05/16 03:01:11;;;;;;;10.82;4.95;;;;;;;12.32;81.68;98831.25;4391117;32;20456;-78
2021/05/16 03:03:38;;;;;;;14.00;4.65;;;;;;;12.20;82.18;98829.56;4387477;32;20038;-78
2021/05/16 03:06:04;;;;;;;9.40;4.90;;;;;;;12.16;82.48;98822.59;4390630;32;20082;-77
2021/05/16 03:08:31;;;;;;;9.68;4.65;;;;;;;12.15;82.30;98827.44;4389348;32;20112;-78
2021/05/16 03:10:57;;;;;;;12.20;5.12;;;;;;;12.11;82.23;98832.53;4396101;32;20038;-76
2021/05/16 03:13:22;;;;;;;8.30;4.37;;;;;;;12.07;82.11;98832.78;4392006;32;20466;-75
2021/05/16 03:15:48;;;;;;;8.82;5.03;;;;;;;12.03;82.59;98837.06;4391621;32;20068;-76
2021/05/16 03:18:14;;;;;;;8.00;4.78;;;;;;;12.01;83.03;98828.31;4391898;32;20077;-76
2021/05/16 03:20:40;;;;;;;9.85;4.93;;;;;;;11.99;83.10;98826.00;4395463;32;20073;-78
2021/05/16 03:23:06;;;;;;;10.15;5.05;;;;;;;12.04;83.19;98824.50;4393783;32;20103;-77
2021/05/16 03:25:34;;;;;;;12.43;4.82;;;;;;;12.09;83.30;98827.37;4391792;32;20157;-77
2021/05/16 03:28:02;;;;;;;11.27;5.05;;;;;;;12.00;83.67;98818.31;4391538;32;20047;-76
2021/05/16 03:30:28;;;;;;;10.07;5.28;;;;;;;11.95;84.06;98816.97;4392010;32;20165;-77
2021/05/16 03:32:53;;;;;;;11.38;5.22;;;;;;;11.97;83.63;98822.13;4392870;32;20679;-76
2021/05/16 03:35:19;;;;;;;10.82;5.40;;;;;;;12.00;83.70;98832.41;4393832;32;20114;-76
2021/05/16 03:37:45;;;;;;;14.32;6.53;;;;;;;11.95;82.85;98824.66;4394141;32;20434;-77
2021/05/16 03:40:11;;;;;;;16.08;6.65;;;;;;;11.89;82.57;98827.41;4398376;32;20089;-76
2021/05/16 03:42:37;;;;;;;14.23;6.60;;;;;;;11.82;82.23;98821.44;4396236;32;20066;-76
2021/05/16 03:45:05;;;;;;;16.35;6.70;;;;;;;11.74;82.78;98814.66;4397199;32;20539;-75
2021/05/16 03:47:31;;;;;;;18.90;5.75;;;;;;;11.79;82.45;98819.59;4398710;32;20056;-76
2021/05/16 03:49:57;;;;;;;11.90;6.40;;;;;;;11.79;82.66;98828.03;4393611;32;20103;-76
2021/05/16 03:52:22;;;;;;;13.05;5.82;;;;;;;11.62;82.64;98827.03;4395285;32;20111;-76
2021/05/16 03:54:49;;;;;;;20.30;6.10;;;;;;;11.65;83.10;98826.84;4394439;32;20494;-76
2021/05/16 03:57:16;;;;;;;16.50;6.20;;;;;;;11.61;83.14;98823.44;4394146;32;20125;-75
2021/05/16 03:59:43;;;;;;;12.13;5.78;;;;;;;11.39;84.11;98820.28;4396280;32;20459;-74
2021/05/16 04:02:09;;;;;;;17.95;6.47;;;;;;;11.33;83.75;98821.47;4391876;32;20652;-75
2021/05/16 04:04:35;;;;;;;15.68;6.53;;;;;;;11.30;84.25;98814.00;4396078;32;20056;-77
2021/05/16 04:07:01;;;;;;;11.65;5.43;;;;;;;11.23;84.89;98814.44;4395088;32;20050;-75
2021/05/16 04:09:26;;;;;;;12.18;6.10;;;;;;;11.25;85.10;98811.87;4399452;32;20081;-79
2021/05/16 04:11:52;;;;;;;15.00;5.62;;;;;;;11.27;84.88;98815.78;4394959;32;20442;-76
2021/05/16 04:14:18;;;;;;;12.70;5.57;;;;;;;11.28;85.04;98808.09;4396507;32;20065;-79
2021/05/16 04:16:44;;;;;;;12.90;5.87;;;;;;;11.21;84.70;98811.31;4399615;32;20076;-78
2021/05/16 04:19:10;;;;;;;11.20;5.72;;;;;;;11.17;85.62;98814.31;4396964;32;20085;-76
2021/05/16 04:21:36;;;;;;;13.93;5.80;;;;;;;11.13;85.89;98816.56;4395419;32;20094;-77
2021/05/16 04:24:02;;;;;;;12.43;6.03;;;;;;;11.13;86.34;98815.78;4397783;32;20582;-77
2021/05/16 04:26:27;;;;;;;13.32;6.03;;;;;;;11.09;85.92;98815.22;4391892;32;20054;-74
2021/05/16 04:28:53;;;;;;;13.27;6.35;;;;;;;11.08;86.04;98810.88;4394202;32;20106;-76
2021/05/16 04:31:19;;;;;;;15.05;5.75;;;;;;;11.07;86.34;98817.75;4392729;32;20156;-77
2021/05/16 04:33:44;;;;;;;11.98;5.72;;;;;;;11.05;86.65;98814.66;4397871;32;20103;-75
2021/05/16 04:36:10;;;;;;;12.05;5.30;;;;;;;11.02;86.27;98818.44;4394317;32;20138;-76
2021/05/16 04:38:35;;;;;;;11.50;5.28;;;;;;;11.01;86.63;98820.47;4393704;32;20109;-76
2021/05/16 04:41:01;;;;;;;12.37;5.62;;;;;;;10.97;86.55;98817.09;4393688;32;20452;-75
2021/05/16 04:43:27;;;;;;;16.20;5.20;;;;;;;10.94;86.70;98817.28;4393970;32;20042;-76
2021/05/16 04:45:53;;;;;;;15.65;5.30;;;;;;;10.95;87.00;98819.59;4398480;32;20085;-76
2021/05/16 04:48:18;;;;;;;10.85;4.55;;;;;;;10.93;86.44;98816.53;4393912;32;20121;-76
2021/05/16 04:50:44;;;;;;;16.45;5.97;;;;;;;10.92;86.37;98817.78;4395830;32;20100;-76
2021/05/16 04:53:10;;;;;;;19.73;5.32;;;;;;;10.87;86.09;98818.47;4394325;32;20097;-75
2021/05/16 04:55:36;;;;;;;12.20;4.95;;;;;;;10.88;85.87;98827.66;4394477;32;20046;-76
2021/05/16 04:58:01;;;;;;;13.18;5.32;;;;;;;10.84;85.69;98824.28;4392742;32;20077;-76
2021/05/16 05:00:27;;;;;;;15.85;5.95;;;;;;;10.82;85.58;98821.97;4394150;32;20045;-76
2021/05/16 05:02:53;;;;;;;13.38;5.90;;;;;;;10.78;85.60;98829.03;4397847;32;20406;-77
2021/05/16 05:05:19;;;;;;;13.02;5.07;;;;;;;10.79;85.41;98824.97;4394022;32;20467;-77
2021/05/16 05:07:44;;;;;;;12.80;5.85;;;;;;;10.82;85.88;98826.78;4395250;32;20384;-76
2021/05/16 05:10:11;;;;;;;12.70;5.18;;;;;;;10.83;85.42;98825.56;4394909;32;20047;-75
2021/05/16 05:12:37;;;;;;;18.70;6.53;;;;;;;10.88;85.61;98822.03;4394463;32;20116;-76
2021/05/16 05:15:04;;;;;;;13.55;5.32;;;;;;;10.84;85.93;98827.09;4395770;32;20082;-77
2021/05/16 05:17:30;;;;;;;12.48;5.75;;;;;;;10.88;86.00;98822.81;4396667;32;20157;-76
2021/05/16 05:19:56;;;;;;;11.63;5.32;;;;;;;10.86;86.47;98822.53;4394708;32;20078;-76
2021/05/16 05:22:21;;;;;;;15.30;5.95;;;;;;;10.92;85.89;98817.00;4397419;32;20082;-77
2021/05/16 05:24:47;;;;;;;15.38;5.85;;;;;;;10.94;85.55;98825.72;4394115;32;20490;-77
2021/05/16 05:27:13;;;;;;;12.23;5.78;;;;;;;10.86;85.78;98821.78;4397212;32;20481;-75
2021/05/16 05:29:38;;;;;;;18.10;5.30;;;;;;;10.88;85.20;98824.84;4392869;32;20058;-76
2021/05/16 05:32:05;;;;;;;13.80;5.70;;;;;;;10.86;85.19;98830.22;4394122;32;20054;-77
2021/05/16 05:34:30;;;;;;;14.63;6.55;;;;;;;10.89;85.70;98832.81;4393204;32;20038;-76
2021/05/16 05:36:56;;;;;;;11.40;6.03;;;;;;;10.92;85.63;98834.66;4394942;32;20077;-77
2021/05/16 05:39:22;;;;;;;17.73;6.25;;;;;;;11.03;85.39;98829.22;4393913;32;20104;-77
2021/05/16 05:41:47;;;;;;;13.02;5.22;;;;;;;11.07;85.01;98840.25;4393010;32;20054;-76
2021/05/16 05:44:14;;;;;;;15.27;6.37;;;;;;;11.18;85.40;98829.19;4396488;32;20148;-77
2021/05/16 05:46:40;;;;;;;10.60;5.18;;;;;;;11.31;85.27;98827.59;4389628;32;20047;-77
2021/05/16 05:49:07;;;;;;;12.63;5.32;;;;;;;11.38;83.87;98826.41;4394282;32;20595;-76
2021/05/16 05:51:33;;;;;;;12.20;5.07;;;;;;;11.42;83.92;98829.81;4391706;32;20128;-77
2021/05/16 05:53:59;;;;;;;8.93;4.75;;;;;;;11.57;84.10;98830.53;4392771;32;20465;-76
2021/05/16 05:56:24;;;;;;;14.70;5.07;;;;;;;11.69;83.29;98835.84;4393352;32;20072;-76
2021/05/16 05:58:51;;;;;;;14.90;5.22;;;;;;;11.77;82.31;98831.34;4395879;32;20490;-76
2021/05/16 06:01:17;;;;;;;12.73;5.03;;;;;;;11.88;81.11;98831.47;4391408;32;20075;-76
2021/05/16 06:03:45;;;;;;;13.27;4.28;;;;;;;11.96;79.40;98837.47;4391832;32;20486;-76
2021/05/16 06:06:11;;;;;;;13.93;3.97;;;;;;;12.02;78.55;98835.50;4390494;32;20108;-77
2021/05/16 06:08:38;;;;;;;11.43;4.30;;;;;;;12.21;79.13;98842.37;4393966;32;21092;-77
2021/05/16 06:11:05;;;;;;;14.68;3.80;;;;;;;12.37;78.46;98836.19;4393785;32;20034;-76
2021/05/16 06:13:30;;;;;;;12.85;3.33;;;;;;;12.46;76.67;98836.03;4393516;32;20130;-76
2021/05/16 06:15:56;;;;;;;13.25;3.50;;;;;;;12.59;75.97;98836.41;4397474;32;20439;-77
2021/05/16 06:18:23;;;;;;;14.00;3.37;;;;;;;12.69;74.09;98829.31;4393435;32;20090;-76
2021/05/16 06:20:49;;;;;;;19.15;3.10;;;;;;;12.75;73.79;98837.81;4397104;32;20080;-76
2021/05/16 06:23:17;;;;;;;11.48;3.00;;;;;;;12.89;73.53;98836.94;4392409;32;20050;-76
2021/05/16 06:25:43;;;;;;;12.27;2.85;;;;;;;12.89;72.80;98842.59;4391767;32;20105;-77
2021/05/16 06:28:09;;;;;;;11.98;2.62;;;;;;;12.93;71.74;98837.47;4394233;32;20124;-76
2021/05/16 06:30:35;;;;;;;10.02;2.65;;;;;;;12.96;73.60;98842.13;4388816;32;20069;-76
2021/05/16 06:33:00;;;;;;;8.32;3.03;;;;;;;13.15;73.99;98838.47;4394005;32;20407;-77
2021/05/16 06:35:26;;;;;;;11.20;2.90;;;;;;;13.34;73.95;98836.03;4390821;32;20050;-75
2021/05/16 06:37:52;;;;;;;11.02;2.70;;;;;;;13.37;71.34;98835.81;4391236;32;20083;-77
2021/05/16 06:40:17;;;;;;;15.95;2.40;;;;;;;13.53;71.71;98837.22;4389933;32;20042;-76
2021/05/16 06:42:44;;;;;;;18.25;2.70;;;;;;;13.67;69.78;98834.19;4391519;32;20085;-77
2021/05/16 06:45:11;;;;;;;18.60;3.15;;;;;;;13.90;69.37;98837.94;4395516;32;20025;-77
2021/05/16 06:47:37;;;;;;;11.30;2.40;;;;;;;14.08;69.57;98840.28;4392723;32;20089;-76
2021/05/16 06:50:06;;;;;;;12.30;3.00;;;;;;;14.20;69.00;98838.31;4394873;32;20407;-77
2021/05/16 06:52:32;;;;;;;9.88;2.60;;;;;;;14.16;67.93;98835.72;4391291;32;20058;-77
2021/05/16 06:54:57;;;;;;;13.05;2.53;;;;;;;14.21;66.95;98832.12;4390963;32;20173;-76
2021/05/16 06:57:23;;;;;;;13.43;2.60;;;;;;;14.27;67.60;98838.62;4392528;32;20045;-76
2021/05/16 06:59:49;;;;;;;7.90;2.47;;;;;;;14.31;66.80;98839.16;4394607;32;20090;-76
2021/05/16 07:02:15;;;;;;;11.98;3.45;;;;;;;14.34;68.13;98843.00;4391132;32;20090;-76
2021/05/16 07:04:43;;;;;;;11.82;2.85;;;;;;;14.36;67.82;98841.19;4393967;32;20034;-77
2021/05/16 07:07:09;;;;;;;12.70;2.30;;;;;;;14.36;67.63;98834.78;4392504;32;20030;-78
2021/05/16 07:09:35;;;;;;;14.30;2.80;;;;;;;14.31;67.10;98838.34;4391973;32;20038;-77
2021/05/16 07:12:01;;;;;;;9.02;2.33;;;;;;;14.40;67.26;98832.47;4391981;32;20050;-76
2021/05/16 07:14:27;;;;;;;10.98;2.47;;;;;;;14.45;66.93;98838.12;4390639;32;20050;-75
2021/05/16 07:16:52;;;;;;;10.18;2.58;;;;;;;14.44;66.10;98830.94;4394928;32;20504;-76
2021/05/16 07:19:18;;;;;;;10.20;2.42;;;;;;;14.49;66.15;98838.69;4393590;32;20082;-77
2021/05/16 07:21:44;;;;;;;9.13;2.22;;;;;;;14.56;67.76;98832.50;4393056;32;20413;-77
2021/05/16 07:24:10;;;;;;;12.98;2.40;;;;;;;14.79;67.68;98833.34;4394220;32;20090;-77
2021/05/16 07:26:35;;;;;;;7.22;2.17;;;;;;;14.96;67.64;98834.09;4395052;32;20108;-76
2021/05/16 07:29:01;;;;;;;14.35;2.60;;;;;;;15.15;66.08;98835.13;4394855;32;20046;-76
2021/05/16 07:31:27;;;;;;;10.20;2.20;;;;;;;15.33;66.46;98843.13;4398037;32;20030;-76
2021/05/16 07:33:54;;;;;;;9.88;2.28;;;;;;;15.35;64.19;98838.50;4399077;32;20094;-76
2021/05/16 07:36:20;;;;;;;11.35;2.53;;;;;;;15.42;64.56;98837.22;4396290;32;20800;-76
2021/05/16 07:38:45;;;;;;;14.65;2.62;;;;;;;15.30;64.23;98839.25;4396324;32;20049;-76
2021/05/16 07:41:12;;;;;;;12.48;2.20;;;;;;;15.13;65.67;98851.88;4394943;32;20034;-76
2021/05/16 07:43:38;;;;;;;13.40;2.20;;;;;;;15.22;64.54;98843.88;4395467;32;20074;-77
2021/05/16 07:46:04;;;;;;;14.13;3.20;;;;;;;15.08;65.50;98841.31;4394222;32;20514;-76
2021/05/16 07:48:29;;;;;;;12.32;2.65;;;;;;;15.04;64.02;98841.56;4393187;32;20422;-77
2021/05/16 07:50:57;;;;;;;14.10;1.80;;;;;;;15.06;64.66;98838.22;4391868;32;20096;-78
2021/05/16 07:53:24;;;;;;;15.13;2.55;;;;;;;15.17;64.55;98843.91;4396117;32;20203;-78
2021/05/16 07:55:50;;;;;;;18.33;2.87;;;;;;;15.24;64.65;98844.16;4393575;32;20039;-77
2021/05/16 07:58:16;;;;;;;11.45;2.55;;;;;;;15.42;64.12;98840.81;4397500;32;20026;-77
2021/05/16 08:00:41;;;;;;;11.18;2.55;;;;;;;15.55;63.48;98838.22;4394999;32;20082;-78
2021/05/16 08:03:07;;;;;;;10.48;2.42;;;;;;;15.73;63.30;98842.56;4392554;32;20103;-77
2021/05/16 08:05:33;;;;;;;17.33;2.55;;;;;;;15.71;62.34;98845.91;4395516;32;20523;-77
2021/05/16 08:07:59;;;;;;;15.82;2.67;;;;;;;15.78;60.92;98838.94;4392190;32;20109;-77
2021/05/16 08:10:26;;;;;;;10.80;2.17;;;;;;;15.89;61.88;98839.69;4397547;32;20057;-77
2021/05/16 08:12:52;;;;;;;12.55;2.08;;;;;;;15.97;61.75;98845.59;4394721;32;20426;-77
2021/05/16 08:15:18;;;;;;;12.85;2.80;;;;;;;16.24;58.31;98844.72;4396512;32;20479;-77
2021/05/16 08:17:43;;;;;;;16.17;3.08;;;;;;;16.38;60.30;98843.59;4393544;32;20042;-77
2021/05/16 08:20:09;;;;;;;13.57;2.30;;;;;;;16.51;58.55;98832.47;4391789;32;20508;-77
2021/05/16 08:22:38;;;;;;;14.73;2.50;;;;;;;16.58;57.85;98836.81;4396571;32;20062;-77
2021/05/16 08:25:09;;;;;;;12.20;2.30;;;;;;;16.58;59.12;98837.59;4391351;32;20383;-77
2021/05/16 08:27:36;;;;;;;14.13;2.28;;;;;;;16.62;58.01;98838.09;4395316;32;20054;-76
2021/05/16 08:30:04;;;;;;;10.27;2.50;;;;;;;16.61;59.12;98835.78;4392655;32;20042;-77
2021/05/16 08:32:30;;;;;;;15.32;2.30;;;;;;;16.92;56.05;98836.09;4395630;32;20053;-77
2021/05/16 08:34:56;;;;;;;12.20;2.10;;;;;;;16.98;55.52;98850.25;4397154;32;20076;-76
2021/05/16 08:37:22;;;;;;;17.15;2.28;;;;;;;16.91;54.83;98836.63;4396354;32;20200;-77
2021/05/16 08:39:48;;;;;;;17.25;2.80;;;;;;;16.90;54.21;98835.06;4391908;32;20399;-76
2021/05/16 08:42:16;;;;;;;12.88;2.95;;;;;;;16.88;54.25;98832.00;4396026;32;20127;-77
2021/05/16 08:44:42;;;;;;;13.80;2.67;;;;;;;17.22;55.37;98836.09;4395986;32;20556;-77
2021/05/16 08:47:09;;;;;;;12.37;2.62;;;;;;;17.57;53.13;98836.06;4394305;32;20431;-75
2021/05/16 08:49:35;;;;;;;18.55;2.85;;;;;;;18.01;52.81;98831.97;4395067;32;20046;-77
2021/05/16 08:52:00;;;;;;;13.02;1.90;;;;;;;18.57;51.01;98842.16;4393188;32;20151;-75
2021/05/16 08:54:27;;;;;;;15.20;3.20;;;;;;;18.95;50.38;98831.50;4394386;32;20101;-75
2021/05/16 08:56:54;;;;;;;11.68;2.33;;;;;;;19.60;49.61;98835.34;4393770;32;20072;-74
2021/05/16 08:59:21;;;;;;;11.30;2.20;;;;;;;20.21;46.04;98837.03;4397526;32;20078;-77
2021/05/16 09:01:50;;;;;;;9.40;3.10;;;;;;;20.65;46.86;98835.34;4395472;32;20368;-75
2021/05/16 09:04:31;;;;;;;15.80;2.50;;;;;;;21.07;44.99;98837.75;4395608;32;20104;-77
2021/05/16 09:06:57;;;;;;;13.75;3.40;;;;;;;21.43;43.91;98832.94;4394350;32;20118;-77
2021/05/16 09:09:30;;;;;;;11.63;2.40;;;;;;;21.08;43.70;98833.56;4392957;32;20098;-77
2021/05/16 09:12:00;;;;;;;8.93;3.03;;;;;;;20.94;44.13;98829.22;4392841;32;20487;-78
2021/05/16 09:14:43;;;;;;;9.20;2.97;;;;;;;20.69;44.12;98832.91;4393837;32;20116;-77
2021/05/16 09:22:45;;;;;;;12.40;3.35;;;;;;;19.54;47.82;98826.09;3984683;32;15024510;-78
2021/05/16 09:27:56;;;;;;;12.63;3.53;;;;;;;19.07;48.01;98827.94;3977491;32;15024597;-76
2021/05/16 09:40:54;;;;;;;9.98;3.70;;;;;;;19.65;49.18;98828.00;3980485;32;15023873;-77
2021/05/16 09:46:01;;;;;;;8.27;2.60;;;;;;;19.82;47.42;98827.69;3985312;32;15023267;-76
2021/05/16 09:54:02;;;;;;;12.63;2.22;;;;;;;19.55;47.29;98824.03;3983226;32;15022520;-76
2021/05/16 09:56:44;;;;;;;7.10;1.77;;;;;;;19.55;47.29;98824.03;4436991;32;20088;-77
2021/05/16 09:59:11;;;;;;;6.50;1.90;;;;;;;19.87;44.91;98819.00;4438811;32;20421;-77
2021/05/16 10:01:38;;;;;;;7.95;2.47;;;;;;;20.66;43.38;98816.84;4431850;32;20130;-77
2021/05/16 10:04:06;;;;;;;7.00;1.70;;;;;;;21.37;42.33;98820.09;4423932;32;20042;-77
2021/05/16 10:06:32;;;;;;;11.27;2.78;;;;;;;22.10;38.06;98825.44;4421819;32;20101;-78
2021/05/16 10:08:58;;;;;;;9.07;1.87;;;;;;;22.58;38.19;98816.00;4421123;32;20060;-77
2021/05/16 10:11:29;;;;;;;7.80;2.22;;;;;;;23.11;38.35;98814.78;4424811;32;20103;-77
2021/05/16 10:14:06;;;;;;;13.48;2.10;;;;;;;23.61;36.14;98821.00;4421851;32;20030;-78
2021/05/16 10:16:40;;;;;;;7.72;1.90;;;;;;;23.35;35.58;98825.00;4421559;32;20033;-77
2021/05/16 10:19:07;;;;;;;12.65;2.15;;;;;;;23.23;36.17;98818.84;4422574;32;20188;-78
2021/05/16 10:21:33;;;;;;;8.43;2.10;;;;;;;23.30;36.62;98825.97;4420926;32;20085;-78
2021/05/16 10:24:09;;;;;;;11.25;2.35;;;;;;;23.71;36.83;98821.97;4425556;32;20102;-78
2021/05/16 10:26:35;;;;;;;9.68;2.30;;;;;;;24.20;34.94;98822.31;4420552;32;20038;-78
2021/05/16 10:29:05;;;;;;;9.32;2.12;;;;;;;24.68;35.16;98821.78;4424026;32;20144;-77
2021/05/16 10:31:53;;;;;;;9.82;2.08;;;;;;;25.25;33.54;98819.72;4423862;32;20082;-80
2021/05/16 10:34:39;;;;;;;12.02;2.50;;;;;;;25.29;33.18;98822.97;4422299;32;20064;-77
2021/05/16 10:37:04;;;;;;;5.82;1.90;;;;;;;25.70;34.24;98820.75;4423800;32;20021;-79
2021/05/16 11:01:11;;;;;;;8.93;2.53;;;;;;;23.34;37.14;98789.78;3978544;32;15040802;-77
2021/05/16 11:06:22;;;;;;;12.43;2.58;;;;;;;23.11;38.07;98796.81;3986567;32;15022722;-78
2021/05/16 11:14:32;;;;;;;8.85;2.70;;;;;;;24.92;33.93;98786.56;3999458;31;15014958;-78
2021/05/16 11:17:00;;;;;;;10.77;2.40;;;;;;;24.92;33.93;98786.56;4445046;32;20114;-78
2021/05/16 11:19:28;;;;;;;11.25;2.25;;;;;;;25.22;33.17;98780.59;4457853;32;20456;-78
2021/05/16 11:21:54;;;;;;;11.68;2.15;;;;;;;25.55;31.96;98781.31;4454448;32;20075;-77
2021/05/16 11:27:29;;;;;;;9.70;2.00;;;;;;;26.86;30.44;98773.75;3984874;32;15022036;-77
2021/05/16 11:29:57;;;;;;;9.85;2.17;;;;;;;26.86;30.44;98773.75;4437529;32;20072;-78
2021/05/16 11:32:29;;;;;;;18.15;2.12;;;;;;;27.11;30.11;98779.34;4437586;32;20040;-76
2021/05/16 11:35:16;;;;;;;6.65;1.70;;;;;;;27.06;28.02;98778.25;4438870;32;20045;-76
2021/05/16 11:37:45;;;;;;;8.43;2.03;;;;;;;27.34;27.86;98782.69;4437660;32;20051;-77
2021/05/16 11:40:16;;;;;;;9.02;2.00;;;;;;;26.58;28.68;98770.62;4437574;32;20081;-77
2021/05/16 11:42:42;;;;;;;9.98;2.75;;;;;;;26.23;29.63;98772.78;4440161;32;20084;-77
2021/05/16 11:45:09;;;;;;;8.90;2.08;;;;;;;25.73;30.53;98776.34;4437139;32;20107;-77
2021/05/16 11:47:38;;;;;;;6.47;1.67;;;;;;;25.03;30.49;98785.31;4437150;32;20112;-78
2021/05/16 11:50:06;;;;;;;8.77;2.05;;;;;;;24.91;30.77;98776.38;4437206;32;20478;-79
2021/05/16 11:52:32;;;;;;;4.97;1.85;;;;;;;24.83;30.94;98780.66;4435993;32;20185;-77
2021/05/16 11:55:05;;;;;;;9.43;2.05;;;;;;;24.75;30.82;98772.06;4439031;32;20049;-77
2021/05/16 11:57:31;;;;;;;13.62;1.90;;;;;;;24.61;31.08;98767.88;4438091;32;20064;-78
2021/05/16 11:59:57;;;;;;;5.45;1.75;;;;;;;24.66;31.01;98766.16;4437361;32;20130;-77
2021/05/16 12:02:23;;;;;;;12.98;1.83;;;;;;;24.36;31.56;98778.53;4426491;32;21172;-78
2021/05/16 12:04:48;;;;;;;7.30;1.75;;;;;;;24.31;31.64;98770.91;4424763;32;20388;-78
2021/05/16 12:07:25;;;;;;;12.55;2.45;;;;;;;24.43;31.41;98766.25;4419675;32;20097;-78
2021/05/16 12:09:50;;;;;;;8.38;1.85;;;;;;;24.87;31.09;98764.53;4422895;32;20030;-77
2021/05/16 12:12:18;;;;;;;5.25;1.77;;;;;;;25.60;29.51;98763.03;4423218;32;20065;-77
2021/05/16 12:14:45;;;;;;;5.37;1.60;;;;;;;25.37;29.69;98765.34;4424204;32;20042;-77
2021/05/16 12:17:11;;;;;;;4.68;1.67;;;;;;;25.22;29.13;98762.56;4419689;32;20052;-78
2021/05/16 12:19:38;;;;;;;7.97;2.08;;;;;;;25.23;28.73;98761.97;4418121;32;20081;-78
2021/05/16 12:22:08;;;;;;;4.87;1.55;;;;;;;25.07;29.09;98757.66;4422884;32;20033;-78
2021/05/16 12:24:37;;;;;;;6.18;1.73;;;;;;;25.18;29.31;98757.22;4419971;32;20818;-78